Time;durP1;ratioP1;P1;durP2;ratioP2;P2;SDS_P1;SDS_P2;PMS_P1;PMS_P2;Temp;Humidity;BMP_temperature;BMP_pressure;BME280_temperature;BME280_humidity;BME280_pressure;Samples;Min_cycle;Max_cycle;Signal;HPM_P1;HPM_P2
2022/02/07 00:00:10;;;;;;;;;;;;;;;9.49;60.60;100994.78;5036140;28;19917;-83
2022/02/07 00:02:15;;;;;;;;;;;;;;;9.81;66.78;101017.75;5031124;28;19921;-83
2022/02/07 00:04:45;;;;;;;;;;;;;;;8.52;64.33;101007.50;5034824;28;19917;-83
2022/02/07 00:07:14;;;;;;;;;;;;;;;8.59;65.81;101027.91;5035639;28;20012;-83
2022/02/07 00:09:39;;;;;;;;;;;;;;;8.14;66.98;101032.16;5035162;28;19917;-82
2022/02/07 00:12:05;;;;;;;;;;;;;;;8.56;66.10;101037.91;5034628;28;20016;-83
2022/02/07 00:14:30;;;;;;;;;;;;;;;8.60;65.90;101032.34;5034900;28;19917;-83
2022/02/07 00:16:55;;;;;;;;;;;;;;;8.52;66.27;101038.03;5035166;28;19952;-82
2022/02/07 00:19:25;;;;;;;;;;;;;;;8.34;66.76;101034.13;5036483;28;20077;-83
2022/02/07 00:21:50;;;;;;;;;;;;;;;8.41;66.47;101050.09;5035166;28;19921;-83
2022/02/07 00:24:16;;;;;;;;;;;;;;;8.49;66.34;101051.63;5034847;28;20006;-84
2022/02/07 00:26:41;;;;;;;;;;;;;;;8.57;66.07;101058.56;5034627;28;19960;-83
2022/02/07 00:29:06;;;;;;;;;;;;;;;8.56;65.61;101064.88;5036774;28;19917;-83
2022/02/07 00:31:33;;;;;;;;;;;;;;;8.31;65.48;101068.41;5035502;28;19913;-83
2022/02/07 00:33:59;;;;;;;;;;;;;;;9.00;63.93;101075.88;5034856;28;19925;-84
2022/02/07 00:36:24;;;;;;;;;;;;;;;8.78;63.56;101076.66;5034952;28;19971;-83
2022/02/07 00:38:50;;;;;;;;;;;;;;;9.27;62.25;101078.44;5035863;28;19925;-84
2022/02/07 00:41:21;;;;;;;;;;;;;;;9.14;63.00;101095.13;5034909;28;19967;-84
2022/02/07 00:43:53;;;;;;;;;;;;;;;8.89;63.68;101099.66;5035108;28;19914;-84
2022/02/07 00:46:24;;;;;;;;;;;;;;;9.17;62.86;101099.53;5035200;28;19987;-84
2022/02/07 00:48:50;;;;;;;;;;;;;;;9.46;61.83;101122.72;5035709;28;19913;-84
2022/02/07 00:51:16;;;;;;;;;;;;;;;9.81;60.57;101138.47;5035531;28;19971;-84
2022/02/07 00:53:41;;;;;;;;;;;;;;;9.27;60.66;101132.44;5039090;28;19913;-84
2022/02/07 00:56:06;;;;;;;;;;;;;;;9.16;60.65;101141.84;5039538;28;19917;-83
2022/02/07 00:58:32;;;;;;;;;;;;;;;9.40;59.58;101139.16;5040628;28;20397;-84
2022/02/07 01:00:57;;;;;;;;;;;;;;;9.30;58.64;101149.44;5039439;28;19921;-83
2022/02/07 01:03:22;;;;;;;;;;;;;;;9.55;58.20;101159.28;5039059;28;19928;-83
2022/02/07 01:05:48;;;;;;;;;;;;;;;9.38;57.67;101162.63;5039278;28;19932;-85
2022/02/07 01:08:16;;;;;;;;;;;;;;;9.15;57.16;101161.66;5040441;28;19960;-84
2022/02/07 01:13:32;;;;;;;;;;;;;;;9.89;56.26;101185.00;5040386;28;19917;-84
2022/02/07 01:51:04;;;;;;;;;;;;;;;8.87;56.98;101335.31;5036703;28;20359;-84
2022/02/07 01:56:03;;;;;;;;;;;;;;;9.58;54.17;101381.53;5036819;28;19924;-84
2022/02/07 01:58:29;;;;;;;;;;;;;;;9.16;54.03;101387.50;5035338;28;19925;-84
2022/02/07 02:00:54;;;;;;;;;;;;;;;9.33;53.04;101389.63;5017763;28;19966;-85
2022/02/07 02:03:19;;;;;;;;;;;;;;;8.93;53.05;101403.53;5033304;28;20020;-85
2022/02/07 02:05:45;;;;;;;;;;;;;;;9.32;52.15;101420.25;5035261;28;20079;-85
2022/02/07 02:08:11;;;;;;;;;;;;;;;9.33;52.09;101419.31;5035364;28;20066;-85
2022/02/07 02:10:44;;;;;;;;;;;;;;;9.39;52.40;101424.50;5036130;28;19917;-84
2022/02/07 02:13:13;;;;;;;;;;;;;;;9.45;52.46;101420.72;5034721;28;20061;-84
2022/02/07 02:18:58;;;;;;;;;;;;;;;9.28;52.93;101437.47;5037228;28;19924;-84
2022/02/07 02:45:31;;;;;;;;;;;;;;;9.93;49.81;101498.34;5035393;28;19927;-84
2022/02/07 02:48:00;;;;;;;;;;;;;;;9.67;49.63;101498.34;5035125;28;19917;-83
2022/02/07 02:50:33;;;;;;;;;;;;;;;9.84;49.87;101509.44;5034168;28;20071;-83
2022/02/07 02:53:01;;;;;;;;;;;;;;;9.76;50.23;101519.63;5033883;28;19921;-84
2022/02/07 02:55:26;;;;;;;;;;;;;;;10.12;48.85;101522.03;5033764;28;19924;-83
2022/02/07 02:57:52;;;;;;;;;;;;;;;9.75;49.52;101539.47;5033423;28;19917;-84
2022/02/07 03:00:17;;;;;;;;;;;;;;;9.56;50.01;101533.81;5033642;28;20382;-82
2022/02/07 03:02:42;;;;;;;;;;;;;;;10.11;49.60;101550.91;5033530;28;19932;-84
2022/02/07 03:05:07;;;;;;;;;;;;;;;9.89;50.00;101558.84;5033621;28;20012;-84
2022/02/07 03:07:33;;;;;;;;;;;;;;;9.99;49.55;101559.41;5033743;28;19967;-84
2022/02/07 03:10:01;;;;;;;;;;;;;;;9.89;50.16;101564.25;5033700;28;20387;-84
2022/02/07 03:12:27;;;;;;;;;;;;;;;9.73;50.46;101547.63;5034811;28;19924;-83
2022/02/07 03:14:53;;;;;;;;;;;;;;;10.34;49.52;101573.59;5033372;28;19924;-84
2022/02/07 03:17:19;;;;;;;;;;;;;;;9.63;50.25;101580.41;5033424;28;20379;-83
2022/02/07 03:19:44;;;;;;;;;;;;;;;9.92;50.30;101591.16;5033235;28;19923;-83
2022/02/07 03:22:09;;;;;;;;;;;;;;;9.70;50.85;101599.06;5033697;28;19939;-85
2022/02/07 03:24:35;;;;;;;;;;;;;;;9.27;51.47;101599.53;5033452;28;19971;-83
2022/02/07 03:27:01;;;;;;;;;;;;;;;9.71;51.32;101613.50;5033355;28;19917;-84
2022/02/07 03:29:26;;;;;;;;;;;;;;;9.64;51.37;101623.59;5034704;28;19996;-84
2022/02/07 03:31:51;;;;;;;;;;;;;;;9.85;51.02;101630.13;5034002;28;19972;-83
2022/02/07 03:34:17;;;;;;;;;;;;;;;10.15;50.88;101651.69;5033341;28;19921;-83
2022/02/07 03:36:42;;;;;;;;;;;;;;;9.92;51.13;101656.03;5033595;28;20042;-84
2022/02/07 03:39:08;;;;;;;;;;;;;;;10.13;51.30;101656.28;5033322;28;19921;-83
2022/02/07 03:41:33;;;;;;;;;;;;;;;9.99;51.21;101659.41;5033414;28;19971;-84
2022/02/07 03:43:58;;;;;;;;;;;;;;;9.92;51.80;101672.25;5033353;28;20016;-84
2022/02/07 03:46:24;;;;;;;;;;;;;;;9.78;51.90;101679.88;5032965;28;19932;-83
2022/02/07 03:48:49;;;;;;;;;;;;;;;9.87;52.34;101689.53;5033267;28;19971;-83
2022/02/07 03:51:14;;;;;;;;;;;;;;;9.63;52.59;101692.09;5032647;28;20389;-83
2022/02/07 03:53:39;;;;;;;;;;;;;;;9.99;51.98;101699.09;5032455;28;20449;-84
2022/02/07 03:56:05;;;;;;;;;;;;;;;10.06;52.13;101722.31;5032676;28;19932;-82
2022/02/07 03:58:30;;;;;;;;;;;;;;;10.24;52.29;101716.28;5032456;28;20000;-84
2022/02/07 04:00:56;;;;;;;;;;;;;;;10.53;51.51;101719.91;5032511;28;20012;-82
2022/02/07 04:03:25;;;;;;;;;;;;;;;10.13;52.34;101732.00;5032447;28;19921;-83
2022/02/07 04:05:55;;;;;;;;;;;;;;;10.14;52.57;101722.94;5033131;28;19928;-83
2022/02/07 04:08:26;;;;;;;;;;;;;;;10.55;51.74;101741.50;5033053;28;19921;-83
2022/02/07 04:11:04;;;;;;;;;;;;;;;9.81;53.08;101733.84;5032907;28;19917;-83
2022/02/07 04:13:32;;;;;;;;;;;;;;;9.77;52.66;101748.41;5032594;28;19944;-83
2022/02/07 04:15:59;;;;;;;;;;;;;;;10.19;52.56;101745.31;5033114;28;19924;-84
2022/02/07 04:18:27;;;;;;;;;;;;;;;10.44;51.90;101755.38;5033116;28;19917;-83
2022/02/07 04:20:53;;;;;;;;;;;;;;;9.86;52.60;101766.16;5033347;28;19924;-83
2022/02/07 04:23:18;;;;;;;;;;;;;;;9.92;52.38;101766.84;5032773;28;19917;-84
2022/02/07 04:25:43;;;;;;;;;;;;;;;10.10;51.98;101767.25;5032984;28;19972;-83
2022/02/07 04:28:09;;;;;;;;;;;;;;;10.23;51.59;101783.94;5033351;28;20327;-83
2022/02/07 04:30:34;;;;;;;;;;;;;;;10.00;52.56;101790.06;5033772;28;19963;-83
2022/02/07 04:32:59;;;;;;;;;;;;;;;10.28;52.03;101791.00;5033250;28;19921;-83
2022/02/07 04:35:25;;;;;;;;;;;;;;;10.28;52.56;101804.53;5032372;28;19921;-83
2022/02/07 04:37:50;;;;;;;;;;;;;;;10.58;51.65;101793.72;5034041;28;19917;-83
2022/02/07 04:40:15;;;;;;;;;;;;;;;10.29;53.24;101813.50;5034239;28;19960;-84
2022/02/07 04:42:41;;;;;;;;;;;;;;;10.39;53.10;101817.75;5032861;28;19961;-84
2022/02/07 04:58:01;;;;;;;;;;;;;;;10.42;53.03;101870.88;5034411;28;19963;-83
2022/02/07 05:03:23;;;;;;;;;;;;;;;10.69;52.22;101879.03;5017898;28;19979;-83
2022/02/07 05:16:16;;;;;;;;;;;;;;;10.30;53.28;101901.84;5034069;28;19920;-82
2022/02/07 05:18:41;;;;;;;;;;;;;;;10.51;52.47;101913.88;5032404;28;19967;-84
2022/02/07 05:21:06;;;;;;;;;;;;;;;10.38;53.68;101924.16;5034689;28;20349;-84
2022/02/07 05:23:31;;;;;;;;;;;;;;;10.98;53.26;101927.75;5033834;28;19923;-83
2022/02/07 05:25:57;;;;;;;;;;;;;;;11.08;52.74;101931.06;5031232;28;19924;-83
2022/02/07 05:28:22;;;;;;;;;;;;;;;10.69;53.59;101938.59;5031362;28;19918;-83
2022/02/07 05:30:47;;;;;;;;;;;;;;;10.18;55.52;101948.19;5030958;28;19928;-83
2022/02/07 05:33:12;;;;;;;;;;;;;;;10.30;55.27;101955.94;5031207;28;20252;-83
2022/02/07 05:35:37;;;;;;;;;;;;;;;10.64;54.50;101953.16;5031413;28;19925;-83
2022/02/07 05:38:06;;;;;;;;;;;;;;;10.27;55.28;101962.31;5032362;28;19917;-84
2022/02/07 05:40:52;;;;;;;;;;;;;;;10.59;54.17;101971.34;5035378;28;19917;-85
2022/02/07 05:43:18;;;;;;;;;;;;;;;10.40;54.98;101967.41;5035799;28;19917;-84
2022/02/07 05:45:43;;;;;;;;;;;;;;;10.59;54.06;101984.88;5035590;28;19921;-86
2022/02/07 05:48:08;;;;;;;;;;;;;;;10.41;53.54;101985.41;5035565;28;19917;-86
2022/02/07 05:50:33;;;;;;;;;;;;;;;10.14;53.86;101985.22;5036729;28;19917;-87
2022/02/07 05:52:59;;;;;;;;;;;;;;;10.68;52.38;101990.97;5034996;28;19917;-85
2022/02/07 05:55:24;;;;;;;;;;;;;;;10.18;52.72;101989.63;5035471;28;20538;-85
2022/02/07 05:57:49;;;;;;;;;;;;;;;10.93;51.10;101986.56;5034877;28;19923;-84
2022/02/07 06:00:15;;;;;;;;;;;;;;;11.06;50.86;101987.06;5035068;28;19918;-85
2022/02/07 06:02:40;;;;;;;;;;;;;;;10.87;51.33;102004.81;5035360;28;19928;-86
2022/02/07 06:05:05;;;;;;;;;;;;;;;10.93;51.89;102012.75;5035217;28;19967;-85
2022/02/07 06:07:30;;;;;;;;;;;;;;;11.04;51.09;102007.91;5037128;28;20409;-86
2022/02/07 06:09:56;;;;;;;;;;;;;;;10.88;52.02;102021.00;5036207;28;20032;-87
2022/02/07 06:12:21;;;;;;;;;;;;;;;11.42;50.84;102018.47;5034974;28;20264;-86
2022/02/07 06:14:46;;;;;;;;;;;;;;;10.81;52.26;102022.16;5035059;28;19968;-86
2022/02/07 06:17:11;;;;;;;;;;;;;;;11.11;51.60;102014.00;5035357;28;20350;-86
2022/02/07 06:19:37;;;;;;;;;;;;;;;10.52;53.55;102031.09;5034922;28;20015;-90
2022/02/07 06:22:03;;;;;;;;;;;;;;;11.11;52.14;102024.84;5036361;28;20000;-87
2022/02/07 06:24:28;;;;;;;;;;;;;;;11.20;51.84;102027.25;5034661;28;19927;-87
2022/02/07 06:26:53;;;;;;;;;;;;;;;11.23;51.24;102034.41;5043134;28;20283;-85
2022/02/07 06:29:18;;;;;;;;;;;;;;;11.44;51.35;102040.97;5053046;28;20359;-85
2022/02/07 06:31:43;;;;;;;;;;;;;;;10.87;51.70;102056.25;5055248;28;20398;-85
2022/02/07 06:34:09;;;;;;;;;;;;;;;11.22;51.90;102054.28;5057069;28;19964;-86
2022/02/07 06:36:34;;;;;;;;;;;;;;;11.31;52.28;102062.16;5055397;28;19921;-86
2022/02/07 06:38:59;;;;;;;;;;;;;;;11.26;52.35;102077.66;5055770;28;19917;-86
2022/02/07 06:41:25;;;;;;;;;;;;;;;11.11;52.31;102089.84;5054597;28;19963;-84
2022/02/07 06:43:50;;;;;;;;;;;;;;;10.95;53.10;102098.41;5053687;28;19921;-82
2022/02/07 06:46:16;;;;;;;;;;;;;;;11.44;51.91;102100.59;5053199;28;19917;-82
2022/02/07 06:48:41;;;;;;;;;;;;;;;11.26;52.75;102113.78;5053848;28;19917;-86
2022/02/07 06:51:06;;;;;;;;;;;;;;;11.45;51.96;102113.19;5053600;28;20004;-86
2022/02/07 06:53:32;;;;;;;;;;;;;;;11.22;52.20;102122.00;5054840;28;19917;-85
2022/02/07 06:55:57;;;;;;;;;;;;;;;11.44;52.06;102133.09;5055324;28;20003;-84
2022/02/07 06:58:22;;;;;;;;;;;;;;;11.74;51.52;102141.22;5053916;28;19917;-86
2022/02/07 07:00:47;;;;;;;;;;;;;;;11.01;53.45;102156.94;5054003;28;19927;-85
2022/02/07 07:03:17;;;;;;;;;;;;;;;11.11;53.71;102165.66;5054016;28;19928;-87
2022/02/07 07:05:43;;;;;;;;;;;;;;;11.24;53.43;102168.94;5053581;28;19920;-84
2022/02/07 07:08:08;;;;;;;;;;;;;;;11.21;52.83;102169.00;5054317;28;20007;-84
2022/02/07 07:10:34;;;;;;;;;;;;;;;10.90;53.96;102169.88;5052815;28;20126;-85
2022/02/07 07:13:09;;;;;;;;;;;;;;;11.52;53.43;102175.28;5051445;28;20363;-84
2022/02/07 07:15:41;;;;;;;;;;;;;;;11.26;53.28;102177.88;5051375;28;19927;-85
2022/02/07 07:18:07;;;;;;;;;;;;;;;11.62;52.24;102186.72;5051629;28;19971;-85
2022/02/07 07:20:33;;;;;;;;;;;;;;;11.23;53.50;102191.50;5051939;28;19916;-84
2022/02/07 07:23:01;;;;;;;;;;;;;;;11.51;52.99;102202.44;5052003;28;20814;-84
2022/02/07 07:25:26;;;;;;;;;;;;;;;11.88;52.36;102207.63;5050433;28;19916;-84
2022/02/07 07:28:01;;;;;;;;;;;;;;;11.73;52.62;102210.81;5050568;28;19917;-85
2022/02/07 07:30:30;;;;;;;;;;;;;;;11.56;53.04;102216.72;5051181;28;19920;-85
2022/02/07 07:33:01;;;;;;;;;;;;;;;11.46;53.62;102217.97;5051270;28;20275;-85
2022/02/07 07:35:26;;;;;;;;;;;;;;;11.68;53.26;102237.16;5051659;28;19921;-84
2022/02/07 07:37:51;;;;;;;;;;;;;;;11.79;52.61;102239.56;5051792;28;20340;-84
2022/02/07 07:40:17;;;;;;;;;;;;;;;11.55;53.37;102238.47;5052174;28;19916;-84
2022/02/07 07:42:47;;;;;;;;;;;;;;;11.22;54.78;102244.81;5052179;28;19963;-87
2022/02/07 07:45:13;;;;;;;;;;;;;;;11.12;54.92;102256.84;5052518;28;20298;-85
2022/02/07 07:47:43;;;;;;;;;;;;;;;10.97;55.65;102268.97;5053626;28;20286;-85
2022/02/07 08:01:15;;;;;;;;;;;;;;;11.91;56.76;102277.13;5053515;28;19917;-85
2022/02/07 08:03:41;;;;;;;;;;;;;;;10.57;61.03;102313.28;5054857;28;19928;-83
2022/02/07 08:06:20;;;;;;;;;;;;;;;10.51;60.39;102313.41;5053347;28;19921;-81
2022/02/07 08:11:15;;;;;;;;;;;;;;;10.60;59.56;102313.22;5054139;28;19943;-84
2022/02/07 08:13:42;;;;;;;;;;;;;;;11.08;59.07;102323.75;5051946;28;19927;-84
2022/02/07 08:16:08;;;;;;;;;;;;;;;11.45;57.99;102330.00;5051767;28;19923;-82
2022/02/07 08:18:33;;;;;;;;;;;;;;;10.93;59.19;102330.44;5051842;28;19917;-84
2022/02/07 08:20:59;;;;;;;;;;;;;;;11.18;58.49;102321.66;5053102;28;19967;-85
2022/02/07 08:23:24;;;;;;;;;;;;;;;11.87;57.30;102322.44;5051916;28;19917;-84
2022/02/07 08:25:50;;;;;;;;;;;;;;;11.93;56.27;102337.69;5051588;28;19924;-84
2022/02/07 08:28:15;;;;;;;;;;;;;;;12.32;54.77;102345.56;5051435;28;19917;-84
2022/02/07 08:30:40;;;;;;;;;;;;;;;12.17;54.74;102346.06;5051722;28;20434;-84
2022/02/07 08:33:06;;;;;;;;;;;;;;;11.56;56.32;102346.84;5051292;28;19921;-83
2022/02/07 08:35:31;;;;;;;;;;;;;;;12.04;54.79;102345.50;5051527;28;19921;-84
2022/02/07 08:37:57;;;;;;;;;;;;;;;12.05;54.93;102348.19;5051562;28;20325;-84
2022/02/07 08:40:23;;;;;;;;;;;;;;;12.13;54.34;102350.66;5051544;28;20389;-84
2022/02/07 08:42:48;;;;;;;;;;;;;;;12.01;54.34;102356.47;5051606;28;19928;-83
2022/02/07 08:45:14;;;;;;;;;;;;;;;11.59;54.97;102354.88;5051395;28;19921;-84
2022/02/07 08:47:41;;;;;;;;;;;;;;;11.74;54.26;102368.94;5051303;28;19921;-85
2022/02/07 08:50:07;;;;;;;;;;;;;;;12.41;52.60;102383.28;5051400;28;19955;-85
2022/02/07 08:52:32;;;;;;;;;;;;;;;12.31;53.19;102391.75;5053134;28;19917;-84
2022/02/07 08:54:58;;;;;;;;;;;;;;;12.20;52.98;102401.09;5052772;28;19920;-84
2022/02/07 08:57:38;;;;;;;;;;;;;;;12.30;52.58;102395.41;5051387;28;20363;-84
2022/02/07 09:00:17;;;;;;;;;;;;;;;12.08;53.41;102414.13;5051085;28;20011;-84
2022/02/07 09:10:35;;;;;;;;;;;;;;;12.52;51.36;102444.50;5033304;28;20287;-85
2022/02/07 09:13:01;;;;;;;;;;;;;;;12.02;52.04;102451.34;5031993;28;19917;-84
2022/02/07 09:15:39;;;;;;;;;;;;;;;12.40;51.58;102459.31;5034404;28;20056;-85
2022/02/07 09:18:07;;;;;;;;;;;;;;;12.21;51.74;102461.66;5035972;28;19972;-85
2022/02/07 09:20:35;;;;;;;;;;;;;;;11.92;51.92;102466.06;5046273;28;19959;-86
2022/02/07 09:23:01;;;;;;;;;;;;;;;12.07;51.94;102467.50;5044608;28;20290;-84
2022/02/07 09:25:28;;;;;;;;;;;;;;;11.92;52.76;102476.03;5042892;28;19917;-82
2022/02/07 09:27:53;;;;;;;;;;;;;;;12.24;51.93;102477.84;5046123;28;20090;-82
2022/02/07 09:30:19;;;;;;;;;;;;;;;11.56;53.87;102484.19;5044514;28;20449;-84
2022/02/07 09:32:45;;;;;;;;;;;;;;;12.27;52.08;102476.91;5042655;28;20326;-82
2022/02/07 09:35:11;;;;;;;;;;;;;;;12.07;52.00;102488.31;5041433;28;20050;-83
2022/02/07 09:37:36;;;;;;;;;;;;;;;12.64;51.43;102482.13;5045035;28;20402;-81
2022/02/07 09:40:01;;;;;;;;;;;;;;;12.08;52.47;102487.34;5044143;28;20003;-82
2022/02/07 09:42:27;;;;;;;;;;;;;;;12.75;50.57;102487.25;5042807;28;20027;-82
2022/02/07 09:44:55;;;;;;;;;;;;;;;11.99;51.41;102499.38;5043881;28;19925;-83
2022/02/07 09:47:20;;;;;;;;;;;;;;;12.23;51.99;102509.53;5042146;28;19921;-84
2022/02/07 09:49:46;;;;;;;;;;;;;;;12.37;51.49;102513.69;5042926;28;20285;-82
2022/02/07 09:52:11;;;;;;;;;;;;;;;12.52;51.45;102515.09;5043965;28;20405;-85
2022/02/07 09:54:37;;;;;;;;;;;;;;;11.75;53.88;102534.31;5042687;28;19924;-84
2022/02/07 09:57:03;;;;;;;;;;;;;;;11.88;53.77;102543.00;5043600;28;19964;-85
2022/02/07 09:59:30;;;;;;;;;;;;;;;11.25;55.16;102547.28;5043592;28;19952;-84
2022/02/07 10:01:58;;;;;;;;;;;;;;;11.88;54.11;102557.47;5045550;28;19976;-84
2022/02/07 10:04:36;;;;;;;;;;;;;;;11.31;54.76;102569.69;5041363;28;19975;-82
2022/02/07 10:10:16;;;;;;;;;;;;;;;11.73;54.17;102582.25;5043534;28;20019;-81
2022/02/07 10:12:37;;;;;;;;;;;;;;;11.80;53.67;102577.56;5044027;28;19993;-83
2022/02/07 10:17:38;;;;;;;;;;;;;;;11.60;53.76;102573.53;5043258;28;20012;-81
2022/02/07 10:20:38;;;;;;;;;;;;;;;12.02;53.69;102577.97;5044787;28;19917;-86
2022/02/07 10:34:51;;;;;;;;;;;;;;;12.43;52.58;102607.66;5044276;28;19998;-83
2022/02/07 10:39:57;;;;;;;;;;;;;;;12.48;51.97;102620.13;5044924;28;19923;-85
2022/02/07 10:44:59;;;;;;;;;;;;;;;13.05;50.27;102628.50;5034269;28;19924;-84
2022/02/07 10:47:36;;;;;;;;;;;;;;;13.03;50.15;102627.66;5032324;28;19984;-85
2022/02/07 10:50:04;;;;;;;;;;;;;;;13.24;49.28;102626.13;5036580;28;19917;-84
2022/02/07 10:52:44;;;;;;;;;;;;;;;13.81;47.84;102635.25;5036090;28;19943;-88
2022/02/07 10:55:17;;;;;;;;;;;;;;;14.09;47.56;102635.25;5039421;28;20016;-87
2022/02/07 10:57:44;;;;;;;;;;;;;;;12.27;50.76;102637.88;5036872;28;20371;-89
2022/02/07 11:00:10;;;;;;;;;;;;;;;12.42;50.47;102636.59;5037160;28;19921;-84
2022/02/07 11:03:21;;;;;;;;;;;;;;;12.52;49.87;102638.13;5037186;28;19924;-87
2022/02/07 11:05:25;;;;;;;;;;;;;;;13.07;49.16;102626.63;5038634;28;20014;-82
2022/02/07 11:08:04;;;;;;;;;;;;;;;13.01;49.12;102624.97;5041418;28;20236;-87
2022/02/07 11:10:41;;;;;;;;;;;;;;;12.82;49.97;102637.31;5037694;28;20302;-86
2022/02/07 11:15:48;;;;;;;;;;;;;;;13.27;48.79;102631.47;5038802;28;19928;-87
2022/02/07 11:18:34;;;;;;;;;;;;;;;13.95;47.71;102640.22;5036727;28;19917;-88
2022/02/07 11:21:10;;;;;;;;;;;;;;;13.61;47.30;102633.19;5037702;28;19921;-88
2022/02/07 11:23:48;;;;;;;;;;;;;;;13.98;47.52;102632.88;5037812;28;19917;-86
2022/02/07 11:26:49;;;;;;;;;;;;;;;13.72;47.36;102633.72;5037180;28;19917;-87
2022/02/07 11:29:33;;;;;;;;;;;;;;;14.55;46.12;102635.47;5035192;28;19917;-88
2022/02/07 11:31:58;;;;;;;;;;;;;;;14.00;46.75;102624.66;5035244;28;19932;-87
2022/02/07 11:34:24;;;;;;;;;;;;;;;14.25;45.77;102624.72;5034543;28;19921;-87
2022/02/07 11:36:49;;;;;;;;;;;;;;;13.38;47.06;102634.78;5035048;28;19978;-87
2022/02/07 11:39:17;;;;;;;;;;;;;;;13.62;47.58;102622.25;5034453;28;19917;-87
2022/02/07 11:42:00;;;;;;;;;;;;;;;12.98;47.63;102625.06;5036012;28;19956;-86
2022/02/07 11:44:26;;;;;;;;;;;;;;;14.45;45.82;102606.81;5034457;28;20000;-87
2022/02/07 11:47:10;;;;;;;;;;;;;;;13.79;46.51;102608.09;5034678;28;19924;-87
2022/02/07 11:49:41;;;;;;;;;;;;;;;13.30;46.70;102626.84;5035964;28;19913;-88
2022/02/07 11:52:25;;;;;;;;;;;;;;;14.12;45.90;102616.06;5036107;28;19916;-87
2022/02/07 11:54:57;;;;;;;;;;;;;;;14.56;45.12;102620.03;5034940;28;19940;-85
2022/02/07 11:57:30;;;;;;;;;;;;;;;15.22;43.92;102615.75;5034636;28;19917;-86
2022/02/07 11:59:59;;;;;;;;;;;;;;;14.87;44.19;102622.53;5035751;28;19940;-86
2022/02/07 12:02:34;;;;;;;;;;;;;;;15.18;43.35;102627.72;5033947;28;19971;-89
2022/02/07 12:05:00;;;;;;;;;;;;;;;14.74;42.28;102630.28;5034504;28;19921;-89
2022/02/07 12:07:37;;;;;;;;;;;;;;;14.91;42.28;102634.22;5037409;28;19917;-89
2022/02/07 12:10:13;;;;;;;;;;;;;;;14.80;42.59;102629.19;5034348;28;19924;-87
2022/02/07 12:13:00;;;;;;;;;;;;;;;14.35;43.59;102622.56;5035959;28;19925;-86
2022/02/07 12:15:46;;;;;;;;;;;;;;;15.13;42.13;102621.56;5034284;28;20087;-88
2022/02/07 12:18:14;;;;;;;;;;;;;;;14.77;42.98;102641.06;5035670;28;19917;-89
2022/02/07 12:20:40;;;;;;;;;;;;;;;14.43;42.15;102655.88;5034869;28;20375;-88
2022/02/07 12:23:05;;;;;;;;;;;;;;;14.37;42.27;102656.06;5033676;28;19924;-87
2022/02/07 12:25:51;;;;;;;;;;;;;;;14.60;42.52;102648.91;5035335;28;19957;-87
2022/02/07 12:28:28;;;;;;;;;;;;;;;14.54;43.26;102663.66;5032815;28;20384;-86
2022/02/07 12:31:08;;;;;;;;;;;;;;;13.76;43.99;102651.72;5033255;28;19999;-88
2022/02/07 12:33:33;;;;;;;;;;;;;;;14.27;44.21;102658.22;5032969;28;19922;-88
2022/02/07 12:36:00;;;;;;;;;;;;;;;13.62;45.42;102668.50;5032544;28;20346;-85
2022/02/07 12:38:26;;;;;;;;;;;;;;;13.83;44.12;102656.03;5033096;28;19932;-84
2022/02/07 12:40:52;;;;;;;;;;;;;;;14.08;44.08;102666.09;5030733;28;19917;-87
2022/02/07 12:43:19;;;;;;;;;;;;;;;13.36;44.99;102660.22;5030145;28;19920;-86
2022/02/07 12:45:44;;;;;;;;;;;;;;;14.62;43.79;102663.41;5031371;28;19917;-86
2022/02/07 12:48:14;;;;;;;;;;;;;;;14.09;43.51;102667.00;5031790;28;19925;-86
2022/02/07 12:50:40;;;;;;;;;;;;;;;13.91;44.14;102674.81;5033662;28;19925;-86
2022/02/07 12:53:05;;;;;;;;;;;;;;;13.67;43.84;102665.63;5034201;28;19944;-86
2022/02/07 12:55:30;;;;;;;;;;;;;;;13.85;44.46;102664.16;5034864;28;20302;-87
2022/02/07 12:57:56;;;;;;;;;;;;;;;14.38;43.18;102673.31;5035215;28;19924;-86
2022/02/07 13:00:21;;;;;;;;;;;;;;;14.13;42.55;102675.03;5033942;28;19917;-86
2022/02/07 13:02:48;;;;;;;;;;;;;;;14.40;42.35;102669.56;5049062;28;19983;-86
2022/02/07 13:05:15;;;;;;;;;;;;;;;13.74;44.30;102688.06;5034708;28;19921;-86
2022/02/07 13:07:44;;;;;;;;;;;;;;;13.44;44.30;102680.81;5035973;28;19921;-85
2022/02/07 13:10:12;;;;;;;;;;;;;;;14.35;42.68;102687.91;5034538;28;19917;-85
2022/02/07 13:15:26;;;;;;;;;;;;;;;13.97;42.58;102682.78;5036404;28;19921;-86
2022/02/07 13:17:59;;;;;;;;;;;;;;;13.70;42.63;102695.44;5035555;28;19917;-85
2022/02/07 13:20:25;;;;;;;;;;;;;;;13.52;43.29;102693.31;5035466;28;20274;-85
2022/02/07 13:23:07;;;;;;;;;;;;;;;13.91;42.77;102698.44;5034586;28;19928;-86
2022/02/07 13:25:53;;;;;;;;;;;;;;;13.17;44.00;102703.34;5035156;28;19917;-85
2022/02/07 13:28:20;;;;;;;;;;;;;;;13.51;43.26;102689.66;5051752;28;19924;-85
2022/02/07 13:30:47;;;;;;;;;;;;;;;13.52;43.03;102693.31;5035252;28;19917;-86
2022/02/07 13:33:12;;;;;;;;;;;;;;;14.56;41.38;102693.56;5035833;28;20394;-86
2022/02/07 13:35:42;;;;;;;;;;;;;;;13.53;42.56;102695.97;5035454;28;19921;-87
2022/02/07 13:38:08;;;;;;;;;;;;;;;14.47;41.36;102705.66;5037580;28;19924;-86
2022/02/07 13:40:38;;;;;;;;;;;;;;;13.57;42.58;102703.09;5036923;28;19918;-87
2022/02/07 13:43:03;;;;;;;;;;;;;;;14.02;41.62;102698.97;5036929;28;19917;-89
2022/02/07 13:45:31;;;;;;;;;;;;;;;14.25;40.87;102708.22;5036342;28;19917;-85
2022/02/07 13:47:57;;;;;;;;;;;;;;;13.77;41.64;102707.03;5036258;28;19970;-85
2022/02/07 13:50:24;;;;;;;;;;;;;;;13.92;41.34;102709.28;5036735;28;19996;-87
2022/02/07 13:52:51;;;;;;;;;;;;;;;13.69;41.54;102703.66;5038279;28;19928;-88
2022/02/07 13:55:19;;;;;;;;;;;;;;;13.37;41.42;102706.41;5037406;28;19917;-86
2022/02/07 13:57:59;;;;;;;;;;;;;;;13.77;41.28;102705.19;5037513;28;19940;-85
2022/02/07 14:00:27;;;;;;;;;;;;;;;13.36;40.83;102691.06;5036190;28;19917;-84
2022/02/07 14:03:02;;;;;;;;;;;;;;;12.79;41.66;102702.56;5050998;28;20371;-86
2022/02/07 14:05:32;;;;;;;;;;;;;;;13.50;41.88;102689.72;5050867;28;19921;-86
2022/02/07 14:08:01;;;;;;;;;;;;;;;14.29;40.67;102696.28;5035441;28;20018;-85
2022/02/07 14:10:26;;;;;;;;;;;;;;;13.15;41.81;102705.22;5034232;28;20371;-84
2022/02/07 14:12:52;;;;;;;;;;;;;;;13.31;42.09;102706.56;5034617;28;20008;-85
2022/02/07 14:15:18;;;;;;;;;;;;;;;13.23;42.81;102695.03;5051128;28;20012;-84
2022/02/07 14:17:45;;;;;;;;;;;;;;;13.67;40.53;102695.53;5034678;28;19956;-84
2022/02/07 14:20:13;;;;;;;;;;;;;;;13.54;42.23;102685.97;5036467;28;19917;-83
2022/02/07 14:22:38;;;;;;;;;;;;;;;13.63;42.45;102697.47;5036410;28;19917;-85
2022/02/07 14:25:04;;;;;;;;;;;;;;;13.43;42.54;102695.34;5035700;28;19983;-83
2022/02/07 14:27:31;;;;;;;;;;;;;;;13.80;41.88;102712.38;5035003;28;19952;-83
2022/02/07 14:29:56;;;;;;;;;;;;;;;13.89;41.78;102709.38;5034507;28;20318;-85
2022/02/07 14:32:21;;;;;;;;;;;;;;;12.99;42.94;102708.38;5036479;28;19917;-85
2022/02/07 14:34:47;;;;;;;;;;;;;;;13.40;42.41;102709.03;5034525;28;20382;-85
2022/02/07 14:37:12;;;;;;;;;;;;;;;13.83;41.05;102713.16;5035940;28;19917;-85
2022/02/07 14:39:37;;;;;;;;;;;;;;;12.91;42.99;102715.84;5034004;28;20371;-84
2022/02/07 14:42:06;;;;;;;;;;;;;;;13.38;43.03;102724.50;5033601;28;20011;-81
2022/02/07 14:44:33;;;;;;;;;;;;;;;13.55;42.29;102717.69;5032987;28;19917;-81
2022/02/07 14:47:13;;;;;;;;;;;;;;;12.98;42.87;102717.44;5042004;28;19947;-83
2022/02/07 14:49:39;;;;;;;;;;;;;;;12.87;43.37;102719.56;5042151;28;20302;-83
2022/02/07 14:52:05;;;;;;;;;;;;;;;13.50;42.69;102714.19;5050148;28;19975;-83
2022/02/07 14:54:32;;;;;;;;;;;;;;;13.84;42.32;102724.94;5043282;28;19917;-82
2022/02/07 14:56:57;;;;;;;;;;;;;;;13.16;42.38;102717.88;5041424;28;19921;-84
2022/02/07 14:59:23;;;;;;;;;;;;;;;13.20;42.53;102722.28;5040729;28;20337;-81
2022/02/07 15:01:52;;;;;;;;;;;;;;;13.00;42.32;102711.97;5043379;28;19952;-84
2022/02/07 15:04:17;;;;;;;;;;;;;;;12.30;43.73;102735.50;5038454;28;19955;-82